Terminal Aerodrome Forecast
Issued by NWS Louisville, KY

Home | Current Version | Previous Version | Text Only | Print | Product List | Glossary On
Versions: 1 2 3 4 5 6 7 8 9 10 11 12 13
773
FTUS43 KLMK 292016 AAA
TAFSDF
TAF AMD
KSDF 292016Z 2920/3024 23008KT P6SM FEW050 SCT070
     FM292200 26008KT P6SM VCTS BKN040CB
     FM300000 29004KT P6SM SCT050
     FM300600 33005KT P6SM FEW050 SCT250=

USA.gov is the U.S. government's official web portal to all federal, state and local government web resources and services.